sensor_id;sensor_type;location;lat;lon;timestamp;P1;durP1;ratioP1;P2;durP2;ratioP2
21741;SDS011;11033;47.490;11.116;2023-03-01T00:01:00;91.18;;;43.20;;
21741;SDS011;11033;47.490;11.116;2023-03-01T00:03:27;88.80;;;42.00;;
21741;SDS011;11033;47.490;11.116;2023-03-01T00:05:52;86.40;;;41.97;;
21741;SDS011;11033;47.490;11.116;2023-03-01T00:08:17;83.90;;;39.60;;
21741;SDS011;11033;47.490;11.116;2023-03-01T00:10:43;84.37;;;42.03;;
21741;SDS011;11033;47.490;11.116;2023-03-01T00:13:08;78.80;;;39.00;;
21741;SDS011;11033;47.490;11.116;2023-03-01T00:15:33;77.82;;;38.83;;
21741;SDS011;11033;47.490;11.116;2023-03-01T00:18:03;80.53;;;39.90;;
21741;SDS011;11033;47.490;11.116;2023-03-01T00:20:28;72.07;;;34.87;;
21741;SDS011;11033;47.490;11.116;2023-03-01T00:22:53;80.70;;;39.90;;
21741;SDS011;11033;47.490;11.116;2023-03-01T00:25:19;90.78;;;43.55;;
21741;SDS011;11033;47.490;11.116;2023-03-01T00:27:44;85.77;;;42.60;;
21741;SDS011;11033;47.490;11.116;2023-03-01T00:30:09;80.57;;;40.60;;
21741;SDS011;11033;47.490;11.116;2023-03-01T00:32:35;85.53;;;42.22;;
21741;SDS011;11033;47.490;11.116;2023-03-01T00:35:00;82.10;;;40.63;;
21741;SDS011;11033;47.490;11.116;2023-03-01T00:37:26;77.90;;;41.23;;
21741;SDS011;11033;47.490;11.116;2023-03-01T00:39:51;87.15;;;42.72;;
21741;SDS011;11033;47.490;11.116;2023-03-01T00:42:16;87.47;;;41.88;;
21741;SDS011;11033;47.490;11.116;2023-03-01T00:44:42;84.18;;;40.42;;
21741;SDS011;11033;47.490;11.116;2023-03-01T00:47:07;89.40;;;41.75;;
21741;SDS011;11033;47.490;11.116;2023-03-01T00:49:32;86.28;;;41.78;;
21741;SDS011;11033;47.490;11.116;2023-03-01T00:51:58;89.57;;;41.87;;
21741;SDS011;11033;47.490;11.116;2023-03-01T00:54:23;93.25;;;43.78;;
21741;SDS011;11033;47.490;11.116;2023-03-01T00:56:48;86.50;;;39.80;;
21741;SDS011;11033;47.490;11.116;2023-03-01T00:59:14;73.40;;;37.92;;
21741;SDS011;11033;47.490;11.116;2023-03-01T01:01:39;80.80;;;40.85;;
21741;SDS011;11033;47.490;11.116;2023-03-01T01:04:09;85.90;;;42.40;;
21741;SDS011;11033;47.490;11.116;2023-03-01T01:06:37;76.88;;;37.05;;
21741;SDS011;11033;47.490;11.116;2023-03-01T01:09:07;83.93;;;40.40;;
21741;SDS011;11033;47.490;11.116;2023-03-01T01:11:34;83.68;;;40.05;;
21741;SDS011;11033;47.490;11.116;2023-03-01T01:14:01;78.57;;;39.00;;
21741;SDS011;11033;47.490;11.116;2023-03-01T01:16:27;71.10;;;34.83;;
21741;SDS011;11033;47.490;11.116;2023-03-01T01:18:53;80.72;;;39.92;;
21741;SDS011;11033;47.490;11.116;2023-03-01T01:21:20;77.97;;;38.08;;
21741;SDS011;11033;47.490;11.116;2023-03-01T01:23:48;69.18;;;34.20;;
21741;SDS011;11033;47.490;11.116;2023-03-01T01:26:16;71.63;;;38.08;;
21741;SDS011;11033;47.490;11.116;2023-03-01T01:28:44;72.35;;;37.17;;
21741;SDS011;11033;47.490;11.116;2023-03-01T01:31:09;75.22;;;36.20;;
21741;SDS011;11033;47.490;11.116;2023-03-01T01:33:36;60.55;;;30.80;;
21741;SDS011;11033;47.490;11.116;2023-03-01T01:36:02;69.15;;;35.38;;
21741;SDS011;11033;47.490;11.116;2023-03-01T01:38:28;65.03;;;33.10;;
21741;SDS011;11033;47.490;11.116;2023-03-01T01:40:53;70.63;;;35.03;;
21741;SDS011;11033;47.490;11.116;2023-03-01T01:46:04;77.15;;;36.22;;
21741;SDS011;11033;47.490;11.116;2023-03-01T01:48:41;65.70;;;34.03;;
21741;SDS011;11033;47.490;11.116;2023-03-01T01:51:13;74.72;;;37.50;;
21741;SDS011;11033;47.490;11.116;2023-03-01T01:53:44;79.60;;;37.75;;
21741;SDS011;11033;47.490;11.116;2023-03-01T01:56:14;70.25;;;34.72;;
21741;SDS011;11033;47.490;11.116;2023-03-01T01:58:40;65.85;;;34.95;;
21741;SDS011;11033;47.490;11.116;2023-03-01T02:01:07;75.25;;;36.10;;
21741;SDS011;11033;47.490;11.116;2023-03-01T02:03:33;69.53;;;33.95;;
21741;SDS011;11033;47.490;11.116;2023-03-01T02:06:06;67.72;;;33.80;;
21741;SDS011;11033;47.490;11.116;2023-03-01T02:08:38;65.10;;;34.17;;
21741;SDS011;11033;47.490;11.116;2023-03-01T02:11:07;67.38;;;33.10;;
21741;SDS011;11033;47.490;11.116;2023-03-01T02:13:33;59.65;;;30.77;;
21741;SDS011;11033;47.490;11.116;2023-03-01T02:16:02;65.20;;;34.35;;
21741;SDS011;11033;47.490;11.116;2023-03-01T02:18:29;61.00;;;30.40;;
21741;SDS011;11033;47.490;11.116;2023-03-01T02:20:59;56.75;;;27.45;;
21741;SDS011;11033;47.490;11.116;2023-03-01T02:23:33;65.85;;;31.77;;
21741;SDS011;11033;47.490;11.116;2023-03-01T02:26:06;60.58;;;31.50;;
21741;SDS011;11033;47.490;11.116;2023-03-01T02:28:37;58.25;;;29.58;;
21741;SDS011;11033;47.490;11.116;2023-03-01T02:31:05;57.28;;;30.35;;
21741;SDS011;11033;47.490;11.116;2023-03-01T02:33:51;63.55;;;31.48;;
21741;SDS011;11033;47.490;11.116;2023-03-01T02:36:19;58.50;;;30.13;;
21741;SDS011;11033;47.490;11.116;2023-03-01T02:38:48;59.13;;;31.05;;
21741;SDS011;11033;47.490;11.116;2023-03-01T02:41:17;54.70;;;28.88;;
21741;SDS011;11033;47.490;11.116;2023-03-01T02:43:44;59.58;;;29.25;;
21741;SDS011;11033;47.490;11.116;2023-03-01T02:46:15;57.65;;;29.98;;
21741;SDS011;11033;47.490;11.116;2023-03-01T02:48:52;55.15;;;29.20;;
21741;SDS011;11033;47.490;11.116;2023-03-01T02:53:55;59.45;;;32.53;;
21741;SDS011;11033;47.490;11.116;2023-03-01T02:56:34;59.13;;;30.52;;
21741;SDS011;11033;47.490;11.116;2023-03-01T02:58:59;59.78;;;28.48;;
21741;SDS011;11033;47.490;11.116;2023-03-01T03:01:25;51.20;;;27.15;;
21741;SDS011;11033;47.490;11.116;2023-03-01T03:04:02;52.95;;;27.08;;
21741;SDS011;11033;47.490;11.116;2023-03-01T03:06:29;53.40;;;26.52;;
21741;SDS011;11033;47.490;11.116;2023-03-01T03:08:54;71.93;;;37.08;;
21741;SDS011;11033;47.490;11.116;2023-03-01T03:11:20;70.93;;;35.97;;
21741;SDS011;11033;47.490;11.116;2023-03-01T03:13:45;73.53;;;38.42;;
21741;SDS011;11033;47.490;11.116;2023-03-01T03:16:12;78.80;;;38.58;;
21741;SDS011;11033;47.490;11.116;2023-03-01T03:18:38;65.18;;;35.08;;
21741;SDS011;11033;47.490;11.116;2023-03-01T03:21:04;64.90;;;32.90;;
21741;SDS011;11033;47.490;11.116;2023-03-01T03:23:35;74.30;;;36.05;;
21741;SDS011;11033;47.490;11.116;2023-03-01T03:26:01;70.03;;;33.25;;
21741;SDS011;11033;47.490;11.116;2023-03-01T03:28:29;70.47;;;36.70;;
21741;SDS011;11033;47.490;11.116;2023-03-01T03:30:55;70.43;;;36.72;;
21741;SDS011;11033;47.490;11.116;2023-03-01T03:33:21;71.05;;;37.42;;
21741;SDS011;11033;47.490;11.116;2023-03-01T03:35:47;69.97;;;37.10;;
21741;SDS011;11033;47.490;11.116;2023-03-01T03:38:14;74.07;;;38.53;;
21741;SDS011;11033;47.490;11.116;2023-03-01T03:40:45;79.25;;;38.38;;
21741;SDS011;11033;47.490;11.116;2023-03-01T03:43:13;78.75;;;39.35;;
21741;SDS011;11033;47.490;11.116;2023-03-01T03:45:40;75.32;;;35.38;;
21741;SDS011;11033;47.490;11.116;2023-03-01T03:48:07;77.55;;;37.25;;
21741;SDS011;11033;47.490;11.116;2023-03-01T03:50:34;78.43;;;40.22;;
21741;SDS011;11033;47.490;11.116;2023-03-01T03:53:00;72.47;;;36.38;;
21741;SDS011;11033;47.490;11.116;2023-03-01T03:55:27;72.03;;;37.42;;
21741;SDS011;11033;47.490;11.116;2023-03-01T03:57:56;83.63;;;40.58;;
21741;SDS011;11033;47.490;11.116;2023-03-01T04:00:22;82.72;;;41.10;;
21741;SDS011;11033;47.490;11.116;2023-03-01T04:02:49;72.43;;;36.80;;
21741;SDS011;11033;47.490;11.116;2023-03-01T04:05:16;84.95;;;42.08;;
21741;SDS011;11033;47.490;11.116;2023-03-01T04:07:44;84.72;;;42.17;;
21741;SDS011;11033;47.490;11.116;2023-03-01T04:10:11;84.45;;;43.08;;
21741;SDS011;11033;47.490;11.116;2023-03-01T04:12:39;98.80;;;46.95;;
21741;SDS011;11033;47.490;11.116;2023-03-01T04:15:05;85.25;;;42.13;;
21741;SDS011;11033;47.490;11.116;2023-03-01T04:17:41;99.15;;;45.90;;
21741;SDS011;11033;47.490;11.116;2023-03-01T04:20:09;92.38;;;44.13;;
21741;SDS011;11033;47.490;11.116;2023-03-01T04:25:04;98.28;;;46.17;;
21741;SDS011;11033;47.490;11.116;2023-03-01T04:27:32;88.90;;;42.38;;
21741;SDS011;11033;47.490;11.116;2023-03-01T04:30:01;98.03;;;48.92;;
21741;SDS011;11033;47.490;11.116;2023-03-01T04:32:27;91.38;;;43.08;;
21741;SDS011;11033;47.490;11.116;2023-03-01T04:34:52;85.60;;;44.10;;
21741;SDS011;11033;47.490;11.116;2023-03-01T04:37:17;99.10;;;45.63;;
21741;SDS011;11033;47.490;11.116;2023-03-01T04:39:43;94.72;;;46.60;;
21741;SDS011;11033;47.490;11.116;2023-03-01T04:42:12;100.65;;;49.42;;
21741;SDS011;11033;47.490;11.116;2023-03-01T04:44:37;90.47;;;42.63;;
21741;SDS011;11033;47.490;11.116;2023-03-01T04:47:02;97.97;;;50.13;;
21741;SDS011;11033;47.490;11.116;2023-03-01T04:49:28;91.93;;;45.53;;
21741;SDS011;11033;47.490;11.116;2023-03-01T04:51:53;100.57;;;50.00;;
21741;SDS011;11033;47.490;11.116;2023-03-01T04:54:19;98.40;;;48.07;;
21741;SDS011;11033;47.490;11.116;2023-03-01T04:56:44;109.20;;;50.13;;
21741;SDS011;11033;47.490;11.116;2023-03-01T04:59:09;99.23;;;47.13;;
21741;SDS011;11033;47.490;11.116;2023-03-01T05:01:37;107.93;;;52.13;;
21741;SDS011;11033;47.490;11.116;2023-03-01T05:04:03;111.05;;;53.92;;
21741;SDS011;11033;47.490;11.116;2023-03-01T05:06:30;109.35;;;51.53;;
21741;SDS011;11033;47.490;11.116;2023-03-01T05:08:56;102.32;;;48.70;;
21741;SDS011;11033;47.490;11.116;2023-03-01T05:11:21;94.53;;;48.42;;
21741;SDS011;11033;47.490;11.116;2023-03-01T05:13:47;94.65;;;48.20;;
21741;SDS011;11033;47.490;11.116;2023-03-01T05:16:12;88.00;;;44.88;;
21741;SDS011;11033;47.490;11.116;2023-03-01T05:18:38;103.25;;;50.53;;
21741;SDS011;11033;47.490;11.116;2023-03-01T05:21:07;110.25;;;52.55;;
21741;SDS011;11033;47.490;11.116;2023-03-01T05:23:34;116.30;;;54.00;;
21741;SDS011;11033;47.490;11.116;2023-03-01T05:26:00;103.67;;;50.10;;
21741;SDS011;11033;47.490;11.116;2023-03-01T05:28:27;107.95;;;51.53;;
21741;SDS011;11033;47.490;11.116;2023-03-01T05:30:55;107.57;;;53.85;;
21741;SDS011;11033;47.490;11.116;2023-03-01T05:33:21;92.32;;;47.25;;
21741;SDS011;11033;47.490;11.116;2023-03-01T05:35:48;96.90;;;45.88;;
21741;SDS011;11033;47.490;11.116;2023-03-01T05:38:14;94.00;;;48.17;;
21741;SDS011;11033;47.490;11.116;2023-03-01T05:40:40;96.90;;;48.97;;
21741;SDS011;11033;47.490;11.116;2023-03-01T05:43:09;94.67;;;47.83;;
21741;SDS011;11033;47.490;11.116;2023-03-01T05:45:36;97.75;;;46.50;;
21741;SDS011;11033;47.490;11.116;2023-03-01T05:48:02;104.43;;;53.33;;
21741;SDS011;11033;47.490;11.116;2023-03-01T05:50:31;105.25;;;50.35;;
21741;SDS011;11033;47.490;11.116;2023-03-01T05:52:59;90.22;;;45.05;;
21741;SDS011;11033;47.490;11.116;2023-03-01T05:55:31;106.75;;;53.30;;
21741;SDS011;11033;47.490;11.116;2023-03-01T05:57:58;95.22;;;48.90;;
21741;SDS011;11033;47.490;11.116;2023-03-01T06:00:28;105.70;;;52.97;;
21741;SDS011;11033;47.490;11.116;2023-03-01T06:02:54;94.30;;;47.85;;
21741;SDS011;11033;47.490;11.116;2023-03-01T06:05:21;97.82;;;49.40;;
21741;SDS011;11033;47.490;11.116;2023-03-01T06:07:47;108.10;;;55.13;;
21741;SDS011;11033;47.490;11.116;2023-03-01T06:10:13;113.65;;;58.03;;
21741;SDS011;11033;47.490;11.116;2023-03-01T06:12:39;109.43;;;54.25;;
21741;SDS011;11033;47.490;11.116;2023-03-01T06:15:06;105.63;;;53.42;;
21741;SDS011;11033;47.490;11.116;2023-03-01T06:17:34;91.93;;;46.10;;
21741;SDS011;11033;47.490;11.116;2023-03-01T06:20:03;93.18;;;48.33;;
21741;SDS011;11033;47.490;11.116;2023-03-01T06:22:33;90.38;;;45.70;;
21741;SDS011;11033;47.490;11.116;2023-03-01T06:24:59;101.78;;;50.65;;
21741;SDS011;11033;47.490;11.116;2023-03-01T06:27:24;102.78;;;52.72;;
21741;SDS011;11033;47.490;11.116;2023-03-01T06:29:49;101.15;;;51.67;;
21741;SDS011;11033;47.490;11.116;2023-03-01T06:32:15;103.22;;;50.45;;
21741;SDS011;11033;47.490;11.116;2023-03-01T06:34:40;95.88;;;49.70;;
21741;SDS011;11033;47.490;11.116;2023-03-01T06:37:06;96.63;;;48.80;;
21741;SDS011;11033;47.490;11.116;2023-03-01T06:39:32;96.05;;;53.55;;
21741;SDS011;11033;47.490;11.116;2023-03-01T06:41:57;95.93;;;51.65;;
21741;SDS011;11033;47.490;11.116;2023-03-01T06:44:23;102.28;;;53.50;;
21741;SDS011;11033;47.490;11.116;2023-03-01T06:46:48;98.75;;;51.90;;
21741;SDS011;11033;47.490;11.116;2023-03-01T06:49:13;106.80;;;53.03;;
21741;SDS011;11033;47.490;11.116;2023-03-01T06:51:41;114.75;;;58.10;;
21741;SDS011;11033;47.490;11.116;2023-03-01T06:54:06;101.15;;;53.67;;
21741;SDS011;11033;47.490;11.116;2023-03-01T06:56:32;116.60;;;56.75;;
21741;SDS011;11033;47.490;11.116;2023-03-01T06:58:58;107.97;;;54.13;;
21741;SDS011;11033;47.490;11.116;2023-03-01T07:01:23;100.32;;;52.05;;
21741;SDS011;11033;47.490;11.116;2023-03-01T07:03:48;104.18;;;55.13;;
21741;SDS011;11033;47.490;11.116;2023-03-01T07:06:14;103.77;;;53.03;;
21741;SDS011;11033;47.490;11.116;2023-03-01T07:08:39;106.80;;;53.22;;
21741;SDS011;11033;47.490;11.116;2023-03-01T07:11:04;101.90;;;52.03;;
21741;SDS011;11033;47.490;11.116;2023-03-01T07:13:30;108.00;;;52.35;;
21741;SDS011;11033;47.490;11.116;2023-03-01T07:15:56;100.38;;;51.95;;
21741;SDS011;11033;47.490;11.116;2023-03-01T07:18:21;102.40;;;52.43;;
21741;SDS011;11033;47.490;11.116;2023-03-01T07:20:47;91.50;;;47.72;;
21741;SDS011;11033;47.490;11.116;2023-03-01T07:23:12;95.37;;;46.53;;
21741;SDS011;11033;47.490;11.116;2023-03-01T07:25:37;106.10;;;55.08;;
21741;SDS011;11033;47.490;11.116;2023-03-01T07:28:03;101.78;;;52.53;;
21741;SDS011;11033;47.490;11.116;2023-03-01T07:30:28;100.80;;;50.88;;
21741;SDS011;11033;47.490;11.116;2023-03-01T07:32:54;101.13;;;51.53;;
21741;SDS011;11033;47.490;11.116;2023-03-01T07:35:20;103.30;;;53.88;;
21741;SDS011;11033;47.490;11.116;2023-03-01T07:37:46;105.32;;;51.30;;
21741;SDS011;11033;47.490;11.116;2023-03-01T07:40:11;97.85;;;49.05;;
21741;SDS011;11033;47.490;11.116;2023-03-01T07:42:37;90.50;;;48.40;;
21741;SDS011;11033;47.490;11.116;2023-03-01T07:45:03;94.90;;;49.05;;
21741;SDS011;11033;47.490;11.116;2023-03-01T07:47:30;96.35;;;49.40;;
21741;SDS011;11033;47.490;11.116;2023-03-01T07:49:55;102.47;;;53.10;;
21741;SDS011;11033;47.490;11.116;2023-03-01T07:52:20;90.73;;;45.93;;
21741;SDS011;11033;47.490;11.116;2023-03-01T07:54:46;92.50;;;51.03;;
21741;SDS011;11033;47.490;11.116;2023-03-01T07:57:11;93.00;;;49.83;;
21741;SDS011;11033;47.490;11.116;2023-03-01T07:59:36;87.82;;;46.20;;
21741;SDS011;11033;47.490;11.116;2023-03-01T08:02:02;87.82;;;47.65;;
21741;SDS011;11033;47.490;11.116;2023-03-01T08:04:27;90.47;;;46.60;;
21741;SDS011;11033;47.490;11.116;2023-03-01T08:06:53;88.05;;;48.17;;
21741;SDS011;11033;47.490;11.116;2023-03-01T08:09:19;84.15;;;45.55;;
21741;SDS011;11033;47.490;11.116;2023-03-01T08:11:44;82.65;;;44.47;;
21741;SDS011;11033;47.490;11.116;2023-03-01T08:14:10;78.28;;;42.65;;
21741;SDS011;11033;47.490;11.116;2023-03-01T08:16:35;86.05;;;45.00;;
21741;SDS011;11033;47.490;11.116;2023-03-01T08:19:08;74.28;;;41.35;;
21741;SDS011;11033;47.490;11.116;2023-03-01T08:21:34;82.63;;;44.88;;
21741;SDS011;11033;47.490;11.116;2023-03-01T08:24:01;76.63;;;40.63;;
21741;SDS011;11033;47.490;11.116;2023-03-01T08:26:27;82.35;;;42.58;;
21741;SDS011;11033;47.490;11.116;2023-03-01T08:28:53;68.38;;;37.88;;
21741;SDS011;11033;47.490;11.116;2023-03-01T08:31:20;65.47;;;36.20;;
21741;SDS011;11033;47.490;11.116;2023-03-01T08:33:47;77.22;;;40.47;;
21741;SDS011;11033;47.490;11.116;2023-03-01T08:36:15;70.68;;;38.45;;
21741;SDS011;11033;47.490;11.116;2023-03-01T08:38:41;66.95;;;35.33;;
21741;SDS011;11033;47.490;11.116;2023-03-01T08:41:06;64.83;;;35.47;;
21741;SDS011;11033;47.490;11.116;2023-03-01T08:43:32;69.28;;;38.15;;
21741;SDS011;11033;47.490;11.116;2023-03-01T08:45:57;73.63;;;40.00;;
21741;SDS011;11033;47.490;11.116;2023-03-01T08:48:22;69.15;;;38.28;;
21741;SDS011;11033;47.490;11.116;2023-03-01T08:50:48;70.43;;;37.88;;
21741;SDS011;11033;47.490;11.116;2023-03-01T08:53:13;64.47;;;36.10;;
21741;SDS011;11033;47.490;11.116;2023-03-01T08:55:38;63.78;;;36.42;;
21741;SDS011;11033;47.490;11.116;2023-03-01T08:58:03;63.87;;;34.30;;
21741;SDS011;11033;47.490;11.116;2023-03-01T09:00:29;55.60;;;31.23;;
21741;SDS011;11033;47.490;11.116;2023-03-01T09:02:54;57.63;;;32.92;;
21741;SDS011;11033;47.490;11.116;2023-03-01T09:05:19;57.90;;;31.87;;
21741;SDS011;11033;47.490;11.116;2023-03-01T09:07:45;65.13;;;37.57;;
21741;SDS011;11033;47.490;11.116;2023-03-01T09:10:10;62.83;;;35.23;;
21741;SDS011;11033;47.490;11.116;2023-03-01T09:12:35;62.17;;;36.00;;
21741;SDS011;11033;47.490;11.116;2023-03-01T09:15:01;65.73;;;36.33;;
21741;SDS011;11033;47.490;11.116;2023-03-01T09:17:26;59.35;;;33.58;;
21741;SDS011;11033;47.490;11.116;2023-03-01T09:19:51;61.43;;;34.57;;
21741;SDS011;11033;47.490;11.116;2023-03-01T09:22:17;57.50;;;33.50;;
21741;SDS011;11033;47.490;11.116;2023-03-01T09:24:42;59.33;;;34.37;;
21741;SDS011;11033;47.490;11.116;2023-03-01T09:27:07;65.03;;;36.13;;
21741;SDS011;11033;47.490;11.116;2023-03-01T09:29:34;60.42;;;33.90;;
21741;SDS011;11033;47.490;11.116;2023-03-01T09:32:02;51.47;;;31.40;;
21741;SDS011;11033;47.490;11.116;2023-03-01T09:34:27;46.45;;;27.38;;
21741;SDS011;11033;47.490;11.116;2023-03-01T09:36:53;43.60;;;27.50;;
21741;SDS011;11033;47.490;11.116;2023-03-01T09:39:18;51.78;;;27.70;;
21741;SDS011;11033;47.490;11.116;2023-03-01T09:41:46;48.90;;;29.45;;
21741;SDS011;11033;47.490;11.116;2023-03-01T09:46:43;45.75;;;29.10;;
21741;SDS011;11033;47.490;11.116;2023-03-01T09:49:11;52.40;;;31.27;;
21741;SDS011;11033;47.490;11.116;2023-03-01T09:51:46;55.80;;;32.38;;
21741;SDS011;11033;47.490;11.116;2023-03-01T09:54:20;46.17;;;29.55;;
21741;SDS011;11033;47.490;11.116;2023-03-01T09:56:46;47.72;;;29.10;;
21741;SDS011;11033;47.490;11.116;2023-03-01T10:02:31;40.28;;;24.70;;
21741;SDS011;11033;47.490;11.116;2023-03-01T10:10:50;17.10;;;11.75;;
21741;SDS011;11033;47.490;11.116;2023-03-01T10:13:19;19.83;;;12.55;;
21741;SDS011;11033;47.490;11.116;2023-03-01T10:16:04;20.55;;;14.02;;
21741;SDS011;11033;47.490;11.116;2023-03-01T10:18:36;18.38;;;13.45;;
21741;SDS011;11033;47.490;11.116;2023-03-01T10:21:08;19.50;;;13.95;;
21741;SDS011;11033;47.490;11.116;2023-03-01T10:23:42;21.40;;;14.77;;
21741;SDS011;11033;47.490;11.116;2023-03-01T10:29:04;18.42;;;13.23;;
21741;SDS011;11033;47.490;11.116;2023-03-01T10:31:40;16.20;;;11.80;;
21741;SDS011;11033;47.490;11.116;2023-03-01T10:34:11;41.95;;;25.88;;
21741;SDS011;11033;47.490;11.116;2023-03-01T10:36:58;45.88;;;29.67;;
21741;SDS011;11033;47.490;11.116;2023-03-01T10:39:33;44.65;;;28.20;;
21741;SDS011;11033;47.490;11.116;2023-03-01T10:42:03;38.40;;;25.77;;
21741;SDS011;11033;47.490;11.116;2023-03-01T10:44:41;34.65;;;23.73;;
21741;SDS011;11033;47.490;11.116;2023-03-01T10:47:17;36.65;;;24.85;;
21741;SDS011;11033;47.490;11.116;2023-03-01T10:52:29;31.30;;;23.90;;
21741;SDS011;11033;47.490;11.116;2023-03-01T10:55:01;34.08;;;23.85;;
21741;SDS011;11033;47.490;11.116;2023-03-01T10:58:05;32.38;;;22.83;;
21741;SDS011;11033;47.490;11.116;2023-03-01T11:00:55;32.67;;;22.05;;
21741;SDS011;11033;47.490;11.116;2023-03-01T11:03:24;27.48;;;21.33;;
21741;SDS011;11033;47.490;11.116;2023-03-01T11:08:39;26.60;;;19.85;;
21741;SDS011;11033;47.490;11.116;2023-03-01T11:11:14;26.70;;;20.77;;
21741;SDS011;11033;47.490;11.116;2023-03-01T11:13:54;24.98;;;20.45;;
21741;SDS011;11033;47.490;11.116;2023-03-01T11:16:25;25.63;;;20.00;;
21741;SDS011;11033;47.490;11.116;2023-03-01T11:21:34;27.08;;;20.38;;
21741;SDS011;11033;47.490;11.116;2023-03-01T11:24:19;22.02;;;18.40;;
21741;SDS011;11033;47.490;11.116;2023-03-01T11:26:51;26.15;;;20.10;;
21741;SDS011;11033;47.490;11.116;2023-03-01T11:29:33;22.60;;;18.67;;
21741;SDS011;11033;47.490;11.116;2023-03-01T11:32:04;25.50;;;20.80;;
21741;SDS011;11033;47.490;11.116;2023-03-01T11:36:59;25.15;;;20.80;;
21741;SDS011;11033;47.490;11.116;2023-03-01T11:39:36;27.98;;;22.77;;
21741;SDS011;11033;47.490;11.116;2023-03-01T11:42:11;26.98;;;22.25;;
21741;SDS011;11033;47.490;11.116;2023-03-01T11:44:40;25.92;;;20.85;;
21741;SDS011;11033;47.490;11.116;2023-03-01T11:49:53;23.65;;;19.98;;
21741;SDS011;11033;47.490;11.116;2023-03-01T11:55:12;26.00;;;20.75;;
21741;SDS011;11033;47.490;11.116;2023-03-01T12:01:00;23.58;;;20.98;;
21741;SDS011;11033;47.490;11.116;2023-03-01T12:03:28;22.90;;;19.63;;
21741;SDS011;11033;47.490;11.116;2023-03-01T12:17:12;27.40;;;23.60;;
21741;SDS011;11033;47.490;11.116;2023-03-01T12:19:57;27.88;;;22.92;;
21741;SDS011;11033;47.490;11.116;2023-03-01T12:23:07;24.90;;;21.55;;
21741;SDS011;11033;47.490;11.116;2023-03-01T12:25:39;28.30;;;24.02;;
21741;SDS011;11033;47.490;11.116;2023-03-01T12:30:59;26.95;;;23.45;;
21741;SDS011;11033;47.490;11.116;2023-03-01T12:39:17;27.33;;;24.17;;
21741;SDS011;11033;47.490;11.116;2023-03-01T12:42:01;30.58;;;24.63;;
21741;SDS011;11033;47.490;11.116;2023-03-01T12:49:48;32.95;;;23.92;;
21741;SDS011;11033;47.490;11.116;2023-03-01T12:55:02;26.70;;;22.65;;
21741;SDS011;11033;47.490;11.116;2023-03-01T12:57:38;28.92;;;24.98;;
21741;SDS011;11033;47.490;11.116;2023-03-01T13:00:22;29.52;;;26.35;;
21741;SDS011;11033;47.490;11.116;2023-03-01T13:03:12;31.60;;;25.88;;
21741;SDS011;11033;47.490;11.116;2023-03-01T13:06:03;32.22;;;25.80;;
21741;SDS011;11033;47.490;11.116;2023-03-01T13:11:36;31.00;;;26.98;;
21741;SDS011;11033;47.490;11.116;2023-03-01T13:16:44;31.95;;;27.55;;
21741;SDS011;11033;47.490;11.116;2023-03-01T13:21:49;34.03;;;28.73;;
21741;SDS011;11033;47.490;11.116;2023-03-01T13:24:49;30.70;;;26.30;;
21741;SDS011;11033;47.490;11.116;2023-03-01T13:29:46;38.97;;;27.83;;
21741;SDS011;11033;47.490;11.116;2023-03-01T13:32:26;33.38;;;28.15;;
21741;SDS011;11033;47.490;11.116;2023-03-01T13:34:59;31.73;;;27.40;;
21741;SDS011;11033;47.490;11.116;2023-03-01T13:37:48;37.35;;;29.98;;
21741;SDS011;11033;47.490;11.116;2023-03-01T13:42:43;37.47;;;27.80;;
21741;SDS011;11033;47.490;11.116;2023-03-01T13:45:17;38.47;;;29.05;;
21741;SDS011;11033;47.490;11.116;2023-03-01T13:47:46;38.30;;;28.02;;
21741;SDS011;11033;47.490;11.116;2023-03-01T13:50:27;45.08;;;32.50;;
21741;SDS011;11033;47.490;11.116;2023-03-01T13:53:00;40.45;;;30.15;;
21741;SDS011;11033;47.490;11.116;2023-03-01T13:58:49;44.13;;;29.35;;
21741;SDS011;11033;47.490;11.116;2023-03-01T14:01:22;47.70;;;31.88;;
21741;SDS011;11033;47.490;11.116;2023-03-01T14:03:53;44.47;;;30.55;;
21741;SDS011;11033;47.490;11.116;2023-03-01T14:06:26;40.67;;;29.85;;
21741;SDS011;11033;47.490;11.116;2023-03-01T14:09:08;41.22;;;29.00;;
21741;SDS011;11033;47.490;11.116;2023-03-01T14:11:48;40.83;;;29.92;;
21741;SDS011;11033;47.490;11.116;2023-03-01T14:20:27;48.33;;;32.88;;
21741;SDS011;11033;47.490;11.116;2023-03-01T14:22:55;45.50;;;32.08;;
21741;SDS011;11033;47.490;11.116;2023-03-01T14:25:25;42.92;;;30.95;;
21741;SDS011;11033;47.490;11.116;2023-03-01T14:27:55;43.85;;;30.52;;
21741;SDS011;11033;47.490;11.116;2023-03-01T14:30:30;50.80;;;33.13;;
21741;SDS011;11033;47.490;11.116;2023-03-01T14:33:00;45.00;;;30.20;;
21741;SDS011;11033;47.490;11.116;2023-03-01T14:35:29;46.95;;;33.33;;
21741;SDS011;11033;47.490;11.116;2023-03-01T14:37:57;47.50;;;30.85;;
21741;SDS011;11033;47.490;11.116;2023-03-01T14:40:25;44.28;;;31.80;;
21741;SDS011;11033;47.490;11.116;2023-03-01T14:42:52;49.00;;;32.80;;
21741;SDS011;11033;47.490;11.116;2023-03-01T14:45:20;46.03;;;33.25;;
21741;SDS011;11033;47.490;11.116;2023-03-01T14:47:45;49.08;;;32.83;;
21741;SDS011;11033;47.490;11.116;2023-03-01T14:53:19;49.92;;;34.20;;
21741;SDS011;11033;47.490;11.116;2023-03-01T14:55:48;50.20;;;34.55;;
21741;SDS011;11033;47.490;11.116;2023-03-01T14:58:19;51.08;;;33.03;;
21741;SDS011;11033;47.490;11.116;2023-03-01T15:00:48;47.15;;;32.55;;
21741;SDS011;11033;47.490;11.116;2023-03-01T15:03:19;51.88;;;32.63;;
21741;SDS011;11033;47.490;11.116;2023-03-01T15:05:47;48.42;;;32.63;;
21741;SDS011;11033;47.490;11.116;2023-03-01T15:08:17;50.85;;;33.67;;
21741;SDS011;11033;47.490;11.116;2023-03-01T15:10:55;58.88;;;36.25;;
21741;SDS011;11033;47.490;11.116;2023-03-01T15:13:23;54.40;;;35.83;;
21741;SDS011;11033;47.490;11.116;2023-03-01T15:15:53;53.92;;;35.03;;
21741;SDS011;11033;47.490;11.116;2023-03-01T15:18:28;53.40;;;34.30;;
21741;SDS011;11033;47.490;11.116;2023-03-01T15:20:54;53.42;;;34.53;;
21741;SDS011;11033;47.490;11.116;2023-03-01T15:23:29;58.35;;;38.28;;
21741;SDS011;11033;47.490;11.116;2023-03-01T15:25:55;60.53;;;37.45;;
21741;SDS011;11033;47.490;11.116;2023-03-01T15:28:28;59.35;;;38.40;;
21741;SDS011;11033;47.490;11.116;2023-03-01T15:31:12;56.78;;;38.22;;
21741;SDS011;11033;47.490;11.116;2023-03-01T15:33:48;54.58;;;35.75;;
21741;SDS011;11033;47.490;11.116;2023-03-01T15:36:36;54.53;;;34.60;;
21741;SDS011;11033;47.490;11.116;2023-03-01T15:39:05;56.47;;;35.22;;
21741;SDS011;11033;47.490;11.116;2023-03-01T15:41:50;58.00;;;34.90;;
21741;SDS011;11033;47.490;11.116;2023-03-01T15:44:17;53.25;;;34.00;;
21741;SDS011;11033;47.490;11.116;2023-03-01T15:46:50;60.13;;;37.50;;
21741;SDS011;11033;47.490;11.116;2023-03-01T15:51:46;58.60;;;35.20;;
21741;SDS011;11033;47.490;11.116;2023-03-01T15:54:17;63.10;;;40.60;;